TimeCST,TemperatureF,Dew PointF,Humidity,Sea Level PressureIn,VisibilityMPH,Wind Direction,Wind SpeedMPH,Gust SpeedMPH,PrecipitationIn,Events,Conditions,WindDirDegrees,DateUTC
12:53 AM,-6.0,-15.0,65,30.13,10.0,WSW,10.4,-,N/A,,Clear,240,2014-01-29 06:53:00
1:53 AM,-5.1,-14.1,65,30.12,10.0,SSW,6.9,-,N/A,,Clear,210,2014-01-29 07:53:00
2:53 AM,-9.0,-17.0,68,30.11,10.0,SSW,4.6,-,N/A,,Clear,210,2014-01-29 08:53:00
3:53 AM,-9.0,-15.0,75,30.09,10.0,South,4.6,-,N/A,,Clear,180,2014-01-29 09:53:00
4:53 AM,-7.1,-15.0,68,30.07,10.0,SW,4.6,-,N/A,,Clear,230,2014-01-29 10:53:00
5:53 AM,-8.0,-15.0,71,30.05,10.0,South,3.5,-,N/A,,Clear,190,2014-01-29 11:53:00
6:53 AM,-9.9,-16.1,74,30.03,10.0,South,4.6,-,N/A,,Clear,170,2014-01-29 12:53:00
7:53 AM,-9.0,-15.0,75,30.00,10.0,South,5.8,-,N/A,,Clear,180,2014-01-29 13:53:00
8:53 AM,-5.1,-13.0,69,29.98,10.0,SSE,8.1,-,N/A,,Clear,160,2014-01-29 14:53:00
9:53 AM,1.0,-8.0,66,29.96,10.0,South,9.2,-,N/A,,Clear,190,2014-01-29 15:53:00
10:53 AM,7.0,-5.1,58,29.93,10.0,South,9.2,-,N/A,,Clear,180,2014-01-29 16:53:00
11:53 AM,12.9,-2.0,51,29.87,10.0,South,11.5,-,N/A,,Clear,170,2014-01-29 17:53:00
12:53 PM,18.0,1.0,48,29.78,10.0,South,12.7,-,N/A,,Clear,170,2014-01-29 18:53:00
1:53 PM,19.9,3.9,50,29.73,10.0,South,13.8,23.0,N/A,,Clear,170,2014-01-29 19:53:00
2:53 PM,23.0,7.0,50,29.68,10.0,South,16.1,-,N/A,,Clear,170,2014-01-29 20:53:00
3:53 PM,25.0,10.9,55,29.67,10.0,South,12.7,-,N/A,,Partly Cloudy,180,2014-01-29 21:53:00
4:53 PM,26.1,12.9,58,29.64,10.0,South,10.4,-,N/A,,Clear,180,2014-01-29 22:53:00
5:53 PM,28.9,16.0,58,29.64,10.0,SSW,11.5,-,N/A,,Clear,210,2014-01-29 23:53:00
6:53 PM,28.0,16.0,61,29.65,10.0,WSW,10.4,-,N/A,,Scattered Clouds,250,2014-01-30 00:53:00
7:53 PM,25.0,12.9,60,29.65,10.0,West,9.2,-,N/A,,Clear,260,2014-01-30 01:53:00
8:53 PM,23.0,12.9,65,29.65,10.0,SW,4.6,-,N/A,,Clear,230,2014-01-30 02:53:00
9:53 PM,24.1,14.0,65,29.64,10.0,West,8.1,-,N/A,,Clear,280,2014-01-30 03:53:00
10:53 PM,21.9,12.9,68,29.62,10.0,NW,5.8,-,N/A,,Clear,320,2014-01-30 04:53:00
11:53 PM,19.9,12.0,71,29.62,10.0,WNW,5.8,-,N/A,,Scattered Clouds,300,2014-01-30 05:53:00